Check out our new PWSWeather beta!
PWSweather.com
Personal Weather Stations
Station Observations
OINOFYTA
Oinofyta Greece, OinofytaGR 320 11

Oinofyta GreeceOinofytaGR 320 11

Lat: 38.3080648, Lon: 23.6391172

Elevation: 354

Station Type: ProWeatherStation 1080

https://oinofytaweather.gr/

High Low Average
Temperature 61.2°F16.2°C 31.6°F-0.2°C 44.8°F7.1°C
Dew Point 44.0°F6.7°C 29.4°F-1.4°C 36.8°F2.7°C
Winds 3.4 mph 5.5 kmh Calm Calm 1.0 mph S1.6 kmh S
Wind Gusts 7.6 mph12.2 kmh -- 3.0 mph4.8 kmh
Humidity 99% 43% 75%
Pressure 30.37 in1028.4 mb 30.28 in1025.4 mb -
Precipitation 0.00 in0.0 mm - -
Hour Temp Dew Point Humidity Winds Wind Gusts Pressure Precip Precip Rate Daily Precip Total
12:00 AM 36.5°F2.5°C 30.9°F-0.6°C 80% 0.2 mph SW0.3 kmh SW 2.2 mph3.5 kmh 30.37 in1028.4 mb 0.00 in0.0 mm 0.00 in0.0 mm 0.00 in0.0 mm
12:05 AM 36.1°F2.3°C 30.9°F-0.6°C 81% 0.1 mph WSW0.2 kmh WSW 1.6 mph2.6 kmh 30.36 in1028.1 mb 0.00 in0.0 mm 0.00 in0.0 mm 0.00 in0.0 mm
12:10 AM 36.3°F2.4°C 31.1°F-0.5°C 81% Calm Calm 2.2 mph3.5 kmh 30.37 in1028.4 mb 0.00 in0.0 mm 0.00 in0.0 mm 0.00 in0.0 mm
12:15 AM 36.7°F2.6°C 31.4°F-0.3°C 81% Calm Calm 2.2 mph3.5 kmh 30.37 in1028.4 mb 0.00 in0.0 mm 0.00 in0.0 mm 0.00 in0.0 mm
12:20 AM 36.7°F2.6°C 31.4°F-0.3°C 81% 0.2 mph SW0.3 kmh SW 2.2 mph3.5 kmh 30.36 in1028.1 mb 0.00 in0.0 mm 0.00 in0.0 mm 0.00 in0.0 mm
12:25 AM 36.5°F2.5°C 31.2°F-0.4°C 81% 0.2 mph S0.3 kmh S 2.2 mph3.5 kmh 30.36 in1028.1 mb 0.00 in0.0 mm 0.00 in0.0 mm 0.00 in0.0 mm
12:30 AM 36.3°F2.4°C 31.1°F-0.5°C 81% Calm Calm 0.7 mph1.1 kmh 30.36 in1028.1 mb 0.00 in0.0 mm 0.00 in0.0 mm 0.00 in0.0 mm
12:35 AM 36.3°F2.4°C 31.1°F-0.5°C 81% Calm Calm 0.7 mph1.1 kmh 30.36 in1028.1 mb 0.00 in0.0 mm 0.00 in0.0 mm 0.00 in0.0 mm
12:40 AM 36.5°F2.5°C 31.2°F-0.4°C 81% 0.1 mph SSW0.2 kmh SSW 2.2 mph3.5 kmh 30.36 in1028.1 mb 0.00 in0.0 mm 0.00 in0.0 mm 0.00 in0.0 mm
12:45 AM 36.1°F2.3°C 30.9°F-0.6°C 81% 0.1 mph SSW0.2 kmh SSW 2.2 mph3.5 kmh 30.36 in1028.1 mb 0.00 in0.0 mm 0.00 in0.0 mm 0.00 in0.0 mm
12:50 AM 36.1°F2.3°C 31.2°F-0.4°C 82% 0.2 mph SW0.3 kmh SW 2.2 mph3.5 kmh 30.36 in1028.1 mb 0.00 in0.0 mm 0.00 in0.0 mm 0.00 in0.0 mm
12:55 AM 36.0°F2.2°C 31.0°F-0.6°C 82% 0.3 mph SW0.5 kmh SW 2.2 mph3.5 kmh 30.35 in1027.8 mb 0.00 in0.0 mm 0.00 in0.0 mm 0.00 in0.0 mm
01:00 AM 36.1°F2.3°C 31.2°F-0.4°C 82% 0.4 mph SW0.6 kmh SW 2.2 mph3.5 kmh 30.35 in1027.8 mb 0.00 in0.0 mm 0.00 in0.0 mm 0.00 in0.0 mm
01:05 AM 36.0°F2.2°C 31.0°F-0.6°C 82% 0.7 mph SW1.1 kmh SW 2.2 mph3.5 kmh 30.35 in1027.8 mb 0.00 in0.0 mm 0.00 in0.0 mm 0.00 in0.0 mm
01:10 AM 36.0°F2.2°C 31.0°F-0.6°C 82% 0.6 mph SW1.0 kmh SW 2.2 mph3.5 kmh 30.35 in1027.8 mb 0.00 in0.0 mm 0.00 in0.0 mm 0.00 in0.0 mm
01:15 AM 36.0°F2.2°C 31.0°F-0.6°C 82% 0.2 mph S0.3 kmh S 2.2 mph3.5 kmh 30.36 in1028.1 mb 0.00 in0.0 mm 0.00 in0.0 mm 0.00 in0.0 mm
01:20 AM 35.8°F2.1°C 30.8°F-0.7°C 82% Calm Calm 1.6 mph2.6 kmh 30.36 in1028.1 mb 0.00 in0.0 mm 0.00 in0.0 mm 0.00 in0.0 mm
01:25 AM 35.2°F1.8°C 30.6°F-0.8°C 83% 0.2 mph SE0.3 kmh SE 2.2 mph3.5 kmh 30.36 in1028.1 mb 0.00 in0.0 mm 0.00 in0.0 mm 0.00 in0.0 mm
01:30 AM 35.1°F1.7°C 30.7°F-0.7°C 84% 0.3 mph SE0.5 kmh SE 2.2 mph3.5 kmh 30.36 in1028.1 mb 0.00 in0.0 mm 0.00 in0.0 mm 0.00 in0.0 mm
01:35 AM 34.7°F1.5°C 30.7°F-0.7°C 85% 0.3 mph SE0.5 kmh SE 2.2 mph3.5 kmh 30.36 in1028.1 mb 0.00 in0.0 mm 0.00 in0.0 mm 0.00 in0.0 mm
01:40 AM 34.2°F1.2°C 30.4°F-0.9°C 86% 0.5 mph SE0.8 kmh SE 2.2 mph3.5 kmh 30.35 in1027.8 mb 0.00 in0.0 mm 0.00 in0.0 mm 0.00 in0.0 mm
01:45 AM 34.3°F1.3°C 30.9°F-0.6°C 87% 0.2 mph ESE0.3 kmh ESE 1.6 mph2.6 kmh 30.35 in1027.8 mb 0.00 in0.0 mm 0.00 in0.0 mm 0.00 in0.0 mm
01:50 AM 34.5°F1.4°C 31.1°F-0.5°C 87% Calm Calm 0.7 mph1.1 kmh 30.35 in1027.8 mb 0.00 in0.0 mm 0.00 in0.0 mm 0.00 in0.0 mm
01:55 AM 34.9°F1.6°C 31.4°F-0.3°C 87% 0.1 mph SW0.2 kmh SW 1.6 mph2.6 kmh 30.35 in1027.8 mb 0.00 in0.0 mm 0.00 in0.0 mm 0.00 in0.0 mm
02:00 AM 35.1°F1.7°C 31.6°F-0.2°C 87% 0.1 mph SW0.2 kmh SW 1.6 mph2.6 kmh 30.35 in1027.8 mb 0.00 in0.0 mm 0.00 in0.0 mm 0.00 in0.0 mm
02:05 AM 35.4°F1.9°C 31.7°F-0.2°C 86% Calm Calm 2.2 mph3.5 kmh 30.35 in1027.8 mb 0.00 in0.0 mm 0.00 in0.0 mm 0.00 in0.0 mm
02:10 AM 35.1°F1.7°C 31.0°F-0.6°C 85% 0.5 mph SE0.8 kmh SE 2.2 mph3.5 kmh 30.35 in1027.8 mb 0.00 in0.0 mm 0.00 in0.0 mm 0.00 in0.0 mm
02:15 AM 34.2°F1.2°C 30.4°F-0.9°C 86% 0.5 mph SSE0.8 kmh SSE 2.2 mph3.5 kmh 30.35 in1027.8 mb 0.00 in0.0 mm 0.00 in0.0 mm 0.00 in0.0 mm
02:20 AM 34.3°F1.3°C 31.4°F-0.3°C 89% 0.3 mph SW0.5 kmh SW 2.2 mph3.5 kmh 30.35 in1027.8 mb 0.00 in0.0 mm 0.00 in0.0 mm 0.00 in0.0 mm
02:25 AM 35.8°F2.1°C 32.9°F0.5°C 89% 0.6 mph SW1.0 kmh SW 2.2 mph3.5 kmh 30.35 in1027.8 mb 0.00 in0.0 mm 0.00 in0.0 mm 0.00 in0.0 mm
02:30 AM 36.5°F2.5°C 32.7°F0.4°C 86% 0.6 mph SW1.0 kmh SW 2.2 mph3.5 kmh 30.35 in1027.8 mb 0.00 in0.0 mm 0.00 in0.0 mm 0.00 in0.0 mm
02:35 AM 36.7°F2.6°C 32.6°F0.3°C 85% 0.6 mph SW1.0 kmh SW 2.2 mph3.5 kmh 30.35 in1027.8 mb 0.00 in0.0 mm 0.00 in0.0 mm 0.00 in0.0 mm
02:40 AM 36.3°F2.4°C 32.0°F0.0°C 84% 0.4 mph SW0.6 kmh SW 2.2 mph3.5 kmh 30.35 in1027.8 mb 0.00 in0.0 mm 0.00 in0.0 mm 0.00 in0.0 mm
02:45 AM 36.5°F2.5°C 32.4°F0.2°C 85% 0.1 mph SW0.2 kmh SW 1.6 mph2.6 kmh 30.35 in1027.8 mb 0.00 in0.0 mm 0.00 in0.0 mm 0.00 in0.0 mm
02:50 AM 36.0°F2.2°C 31.6°F-0.2°C 84% 0.3 mph SE0.5 kmh SE 3.8 mph6.1 kmh 30.35 in1027.8 mb 0.00 in0.0 mm 0.00 in0.0 mm 0.00 in0.0 mm
02:55 AM 34.5°F1.4°C 30.5°F-0.8°C 85% 0.9 mph SE1.4 kmh SE 3.8 mph6.1 kmh 30.35 in1027.8 mb 0.00 in0.0 mm 0.00 in0.0 mm 0.00 in0.0 mm
03:00 AM 34.2°F1.2°C 30.7°F-0.7°C 87% 0.6 mph SE1.0 kmh SE 3.8 mph6.1 kmh 30.35 in1027.8 mb 0.00 in0.0 mm 0.00 in0.0 mm 0.00 in0.0 mm
03:05 AM 34.7°F1.5°C 31.2°F-0.4°C 87% Calm Calm 1.6 mph2.6 kmh 30.35 in1027.8 mb 0.00 in0.0 mm 0.00 in0.0 mm 0.00 in0.0 mm
03:10 AM 34.0°F1.1°C 30.5°F-0.8°C 87% 0.1 mph SE0.2 kmh SE 1.6 mph2.6 kmh 30.35 in1027.8 mb 0.00 in0.0 mm 0.00 in0.0 mm 0.00 in0.0 mm
03:15 AM 33.3°F0.7°C 30.1°F-1.1°C 88% 0.2 mph SE0.3 kmh SE 1.6 mph2.6 kmh 30.35 in1027.8 mb 0.00 in0.0 mm 0.00 in0.0 mm 0.00 in0.0 mm
03:20 AM 33.4°F0.8°C 30.8°F-0.7°C 90% 0.1 mph ESE0.2 kmh ESE 1.6 mph2.6 kmh 30.35 in1027.8 mb 0.00 in0.0 mm 0.00 in0.0 mm 0.00 in0.0 mm
03:25 AM 34.2°F1.2°C 31.5°F-0.3°C 90% 0.1 mph SW0.2 kmh SW 2.2 mph3.5 kmh 30.35 in1027.8 mb 0.00 in0.0 mm 0.00 in0.0 mm 0.00 in0.0 mm
03:30 AM 34.7°F1.5°C 32.4°F0.2°C 91% 1.1 mph SW1.8 kmh SW 3.8 mph6.1 kmh 30.35 in1027.8 mb 0.00 in0.0 mm 0.00 in0.0 mm 0.00 in0.0 mm
03:35 AM 34.9°F1.6°C 32.0°F0.0°C 89% 1.9 mph SW3.1 kmh SW 3.8 mph6.1 kmh 30.34 in1027.4 mb 0.00 in0.0 mm 0.00 in0.0 mm 0.00 in0.0 mm
03:40 AM 34.7°F1.5°C 31.5°F-0.3°C 88% 1.7 mph SW2.7 kmh SW 3.8 mph6.1 kmh 30.34 in1027.4 mb 0.00 in0.0 mm 0.00 in0.0 mm 0.00 in0.0 mm
03:45 AM 34.2°F1.2°C 31.0°F-0.6°C 88% 2.0 mph SW3.2 kmh SW 6.0 mph9.7 kmh 30.34 in1027.4 mb 0.00 in0.0 mm 0.00 in0.0 mm 0.00 in0.0 mm
03:50 AM 33.8°F1.0°C 30.6°F-0.8°C 88% 2.8 mph SW4.5 kmh SW 6.0 mph9.7 kmh 30.34 in1027.4 mb 0.00 in0.0 mm 0.00 in0.0 mm 0.00 in0.0 mm
03:55 AM 33.6°F0.9°C 30.7°F-0.7°C 89% 2.1 mph SW3.4 kmh SW 6.0 mph9.7 kmh 30.34 in1027.4 mb 0.00 in0.0 mm 0.00 in0.0 mm 0.00 in0.0 mm
04:00 AM 33.6°F0.9°C 30.7°F-0.7°C 89% 0.6 mph SW1.0 kmh SW 3.8 mph6.1 kmh 30.34 in1027.4 mb 0.00 in0.0 mm 0.00 in0.0 mm 0.00 in0.0 mm
04:05 AM 33.8°F1.0°C 31.2°F-0.4°C 90% 0.3 mph SSW0.5 kmh SSW 2.2 mph3.5 kmh 30.33 in1027.1 mb 0.00 in0.0 mm 0.00 in0.0 mm 0.00 in0.0 mm
04:10 AM 34.2°F1.2°C 31.8°F-0.1°C 91% 1.3 mph SW2.1 kmh SW 3.8 mph6.1 kmh 30.33 in1027.1 mb 0.00 in0.0 mm 0.00 in0.0 mm 0.00 in0.0 mm
04:15 AM 34.7°F1.5°C 32.1°F0.1°C 90% 2.1 mph SW3.4 kmh SW 3.8 mph6.1 kmh 30.34 in1027.4 mb 0.00 in0.0 mm 0.00 in0.0 mm 0.00 in0.0 mm
04:20 AM 35.1°F1.7°C 32.4°F0.2°C 90% 2.2 mph SW3.5 kmh SW 3.8 mph6.1 kmh 30.34 in1027.4 mb 0.00 in0.0 mm 0.00 in0.0 mm 0.00 in0.0 mm
04:25 AM 34.9°F1.6°C 31.7°F-0.2°C 88% 1.2 mph SSW1.9 kmh SSW 3.8 mph6.1 kmh 30.34 in1027.4 mb 0.00 in0.0 mm 0.00 in0.0 mm 0.00 in0.0 mm
04:30 AM 33.6°F0.9°C 30.2°F-1.0°C 87% 0.2 mph S0.3 kmh S 3.1 mph5.0 kmh 30.33 in1027.1 mb 0.00 in0.0 mm 0.00 in0.0 mm 0.00 in0.0 mm
04:35 AM 32.7°F0.4°C 29.8°F-1.2°C 89% Calm Calm 1.6 mph2.6 kmh 30.33 in1027.1 mb 0.00 in0.0 mm 0.00 in0.0 mm 0.00 in0.0 mm
04:40 AM 32.0°F0.0°C 29.4°F-1.4°C 90% 0.1 mph E0.2 kmh E 1.6 mph2.6 kmh 30.33 in1027.1 mb 0.00 in0.0 mm 0.00 in0.0 mm 0.00 in0.0 mm
04:45 AM 31.6°F-0.2°C 29.6°F-1.3°C 92% 0.2 mph E0.3 kmh E 1.6 mph2.6 kmh 30.33 in1027.1 mb 0.00 in0.0 mm 0.00 in0.0 mm 0.00 in0.0 mm
04:50 AM 32.4°F0.2°C 30.8°F-0.7°C 94% 0.3 mph E0.5 kmh E 1.6 mph2.6 kmh 30.33 in1027.1 mb 0.00 in0.0 mm 0.00 in0.0 mm 0.00 in0.0 mm
04:55 AM 33.6°F0.9°C 32.3°F0.2°C 95% 0.5 mph W0.8 kmh W 3.1 mph5.0 kmh 30.32 in1026.8 mb 0.00 in0.0 mm 0.00 in0.0 mm 0.00 in0.0 mm
05:00 AM 34.2°F1.2°C 33.7°F0.9°C 98% 0.6 mph WSW1.0 kmh WSW 3.1 mph5.0 kmh 30.32 in1026.8 mb 0.00 in0.0 mm 0.00 in0.0 mm 0.00 in0.0 mm
05:05 AM 34.5°F1.4°C 33.5°F0.8°C 96% 0.8 mph SW1.3 kmh SW 3.1 mph5.0 kmh 30.32 in1026.8 mb 0.00 in0.0 mm 0.00 in0.0 mm 0.00 in0.0 mm
05:10 AM 34.3°F1.3°C 32.5°F0.3°C 93% 0.7 mph SSW1.1 kmh SSW 3.1 mph5.0 kmh 30.33 in1027.1 mb 0.00 in0.0 mm 0.00 in0.0 mm 0.00 in0.0 mm
05:15 AM 33.3°F0.7°C 30.9°F-0.6°C 91% 0.5 mph SE0.8 kmh SE 2.2 mph3.5 kmh 30.33 in1027.1 mb 0.00 in0.0 mm 0.00 in0.0 mm 0.00 in0.0 mm
05:20 AM 32.9°F0.5°C 31.1°F-0.5°C 93% 0.3 mph SE0.5 kmh SE 2.2 mph3.5 kmh 30.33 in1027.1 mb 0.00 in0.0 mm 0.00 in0.0 mm 0.00 in0.0 mm
05:25 AM 32.7°F0.4°C 31.2°F-0.4°C 94% Calm Calm -- 30.33 in1027.1 mb 0.00 in0.0 mm 0.00 in0.0 mm 0.00 in0.0 mm
05:30 AM 32.5°F0.3°C 31.0°F-0.6°C 94% Calm Calm -- 30.32 in1026.8 mb 0.00 in0.0 mm 0.00 in0.0 mm 0.00 in0.0 mm
05:35 AM 32.2°F0.1°C 30.9°F-0.6°C 95% Calm Calm 1.6 mph2.6 kmh 30.32 in1026.8 mb 0.00 in0.0 mm 0.00 in0.0 mm 0.00 in0.0 mm
05:40 AM 32.0°F0.0°C 31.0°F-0.6°C 96% Calm Calm 1.6 mph2.6 kmh 30.33 in1027.1 mb 0.00 in0.0 mm 0.00 in0.0 mm 0.00 in0.0 mm
05:45 AM 33.1°F0.6°C 32.6°F0.3°C 98% 0.2 mph W0.3 kmh W 2.2 mph3.5 kmh 30.33 in1027.1 mb 0.00 in0.0 mm 0.00 in0.0 mm 0.00 in0.0 mm
05:50 AM 34.0°F1.1°C 33.7°F0.9°C 99% 0.6 mph WSW1.0 kmh WSW 2.2 mph3.5 kmh 30.32 in1026.8 mb 0.00 in0.0 mm 0.00 in0.0 mm 0.00 in0.0 mm
05:55 AM 34.3°F1.3°C 33.6°F0.9°C 97% 0.6 mph SW1.0 kmh SW 2.2 mph3.5 kmh 30.32 in1026.8 mb 0.00 in0.0 mm 0.00 in0.0 mm 0.00 in0.0 mm
06:00 AM 34.3°F1.3°C 33.1°F0.6°C 95% 0.2 mph SW0.3 kmh SW 1.6 mph2.6 kmh 30.33 in1027.1 mb 0.00 in0.0 mm 0.00 in0.0 mm 0.00 in0.0 mm
06:05 AM 33.3°F0.7°C 31.2°F-0.4°C 92% 0.7 mph SE1.1 kmh SE 3.8 mph6.1 kmh 30.33 in1027.1 mb 0.00 in0.0 mm 0.00 in0.0 mm 0.00 in0.0 mm
06:10 AM 32.7°F0.4°C 30.9°F-0.6°C 93% 0.8 mph SE1.3 kmh SE 3.8 mph6.1 kmh 30.33 in1027.1 mb 0.00 in0.0 mm 0.00 in0.0 mm 0.00 in0.0 mm
06:15 AM 32.5°F0.3°C 31.0°F-0.6°C 94% 0.2 mph SSE0.3 kmh SSE 2.2 mph3.5 kmh 30.33 in1027.1 mb 0.00 in0.0 mm 0.00 in0.0 mm 0.00 in0.0 mm
06:20 AM 32.7°F0.4°C 31.7°F-0.2°C 96% 0.6 mph SW1.0 kmh SW 3.1 mph5.0 kmh 30.33 in1027.1 mb 0.00 in0.0 mm 0.00 in0.0 mm 0.00 in0.0 mm
06:25 AM 33.3°F0.7°C 32.5°F0.3°C 97% 1.7 mph SW2.7 kmh SW 3.8 mph6.1 kmh 30.32 in1026.8 mb 0.00 in0.0 mm 0.00 in0.0 mm 0.00 in0.0 mm
06:30 AM 33.4°F0.8°C 32.7°F0.4°C 97% 2.3 mph SW3.7 kmh SW 3.8 mph6.1 kmh 30.32 in1026.8 mb 0.00 in0.0 mm 0.00 in0.0 mm 0.00 in0.0 mm
06:35 AM 33.8°F1.0°C 32.8°F0.4°C 96% 1.9 mph SW3.1 kmh SW 3.8 mph6.1 kmh 30.32 in1026.8 mb 0.00 in0.0 mm 0.00 in0.0 mm 0.00 in0.0 mm
06:40 AM 34.2°F1.2°C 33.1°F0.6°C 96% 1.1 mph SW1.8 kmh SW 3.8 mph6.1 kmh 30.33 in1027.1 mb 0.00 in0.0 mm 0.00 in0.0 mm 0.00 in0.0 mm
06:45 AM 34.9°F1.6°C 33.9°F1.1°C 96% 1.0 mph WSW1.6 kmh WSW 3.1 mph5.0 kmh 30.33 in1027.1 mb 0.00 in0.0 mm 0.00 in0.0 mm 0.00 in0.0 mm
06:50 AM 35.6°F2.0°C 34.3°F1.3°C 95% 1.0 mph WSW1.6 kmh WSW 3.1 mph5.0 kmh 30.33 in1027.1 mb 0.00 in0.0 mm 0.00 in0.0 mm 0.00 in0.0 mm
06:55 AM 35.8°F2.1°C 34.0°F1.1°C 93% 0.6 mph SW1.0 kmh SW 3.1 mph5.0 kmh 30.33 in1027.1 mb 0.00 in0.0 mm 0.00 in0.0 mm 0.00 in0.0 mm
07:00 AM 35.4°F1.9°C 33.1°F0.6°C 91% 0.6 mph SSW1.0 kmh SSW 2.2 mph3.5 kmh 30.33 in1027.1 mb 0.00 in0.0 mm 0.00 in0.0 mm 0.00 in0.0 mm
07:05 AM 34.7°F1.5°C 32.4°F0.2°C 91% 1.2 mph SSW1.9 kmh SSW 3.8 mph6.1 kmh 30.33 in1027.1 mb 0.00 in0.0 mm 0.00 in0.0 mm 0.00 in0.0 mm
07:10 AM 34.2°F1.2°C 31.8°F-0.1°C 91% 1.7 mph SW2.7 kmh SW 3.8 mph6.1 kmh 30.33 in1027.1 mb 0.00 in0.0 mm 0.00 in0.0 mm 0.00 in0.0 mm
07:15 AM 33.6°F0.9°C 31.3°F-0.4°C 91% 1.3 mph S2.1 kmh S 3.8 mph6.1 kmh 30.34 in1027.4 mb 0.00 in0.0 mm 0.00 in0.0 mm 0.00 in0.0 mm
07:20 AM 32.7°F0.4°C 30.4°F-0.9°C 91% 0.6 mph SE1.0 kmh SE 3.1 mph5.0 kmh 30.33 in1027.1 mb 0.00 in0.0 mm 0.00 in0.0 mm 0.00 in0.0 mm
07:25 AM 32.0°F0.0°C 30.0°F-1.1°C 92% 0.4 mph SE0.6 kmh SE 3.1 mph5.0 kmh 30.34 in1027.4 mb 0.00 in0.0 mm 0.00 in0.0 mm 0.00 in0.0 mm
07:30 AM 32.4°F0.2°C 31.1°F-0.5°C 95% 0.3 mph S0.5 kmh S 1.6 mph2.6 kmh 30.34 in1027.4 mb 0.00 in0.0 mm 0.00 in0.0 mm 0.00 in0.0 mm
07:35 AM 32.5°F0.3°C 31.5°F-0.3°C 96% 0.5 mph SSE0.8 kmh SSE 3.1 mph5.0 kmh 30.34 in1027.4 mb 0.00 in0.0 mm 0.00 in0.0 mm 0.00 in0.0 mm
07:40 AM 32.4°F0.2°C 31.1°F-0.5°C 95% 1.5 mph SE2.4 kmh SE 3.8 mph6.1 kmh 30.34 in1027.4 mb 0.00 in0.0 mm 0.00 in0.0 mm 0.00 in0.0 mm
07:45 AM 32.2°F0.1°C 31.2°F-0.4°C 96% 1.4 mph SE2.3 kmh SE 3.8 mph6.1 kmh 30.34 in1027.4 mb 0.00 in0.0 mm 0.00 in0.0 mm 0.00 in0.0 mm
07:50 AM 32.4°F0.2°C 31.4°F-0.3°C 96% 0.3 mph SE0.5 kmh SE 2.2 mph3.5 kmh 30.34 in1027.4 mb 0.00 in0.0 mm 0.00 in0.0 mm 0.00 in0.0 mm
07:55 AM 32.5°F0.3°C 31.8°F-0.1°C 97% Calm Calm -- 30.34 in1027.4 mb 0.00 in0.0 mm 0.00 in0.0 mm 0.00 in0.0 mm
08:00 AM 33.3°F0.7°C 32.8°F0.4°C 98% 0.4 mph SSW0.6 kmh SSW 3.1 mph5.0 kmh 30.34 in1027.4 mb 0.00 in0.0 mm 0.00 in0.0 mm 0.00 in0.0 mm
08:05 AM 34.3°F1.3°C 33.8°F1.0°C 98% 0.7 mph SW1.1 kmh SW 3.1 mph5.0 kmh 30.34 in1027.4 mb 0.00 in0.0 mm 0.00 in0.0 mm 0.00 in0.0 mm
08:10 AM 34.9°F1.6°C 34.1°F1.2°C 97% 0.4 mph SW0.6 kmh SW 3.1 mph5.0 kmh 30.34 in1027.4 mb 0.00 in0.0 mm 0.00 in0.0 mm 0.00 in0.0 mm
08:15 AM 35.2°F1.8°C 34.0°F1.1°C 95% 0.5 mph SW0.8 kmh SW 2.2 mph3.5 kmh 30.34 in1027.4 mb 0.00 in0.0 mm 0.00 in0.0 mm 0.00 in0.0 mm
08:20 AM 35.4°F1.9°C 33.9°F1.1°C 94% 1.2 mph SW1.9 kmh SW 2.2 mph3.5 kmh 30.34 in1027.4 mb 0.00 in0.0 mm 0.00 in0.0 mm 0.00 in0.0 mm
08:25 AM 35.8°F2.1°C 34.0°F1.1°C 93% 1.5 mph SW2.4 kmh SW 3.8 mph6.1 kmh 30.34 in1027.4 mb 0.00 in0.0 mm 0.00 in0.0 mm 0.00 in0.0 mm
08:30 AM 36.1°F2.3°C 34.0°F1.1°C 92% 1.2 mph S1.9 kmh S 3.8 mph6.1 kmh 30.35 in1027.8 mb 0.00 in0.0 mm 0.00 in0.0 mm 0.00 in0.0 mm
08:35 AM 35.8°F2.1°C 33.1°F0.6°C 90% 1.1 mph SE1.8 kmh SE 3.8 mph6.1 kmh 30.35 in1027.8 mb 0.00 in0.0 mm 0.00 in0.0 mm 0.00 in0.0 mm
08:40 AM 36.3°F2.4°C 33.7°F0.9°C 90% 0.9 mph SSE1.4 kmh SSE 3.8 mph6.1 kmh 30.35 in1027.8 mb 0.00 in0.0 mm 0.00 in0.0 mm 0.00 in0.0 mm
08:45 AM 37.2°F2.9°C 34.6°F1.4°C 90% 0.5 mph SW0.8 kmh SW 1.6 mph2.6 kmh 30.35 in1027.8 mb 0.00 in0.0 mm 0.00 in0.0 mm 0.00 in0.0 mm
08:50 AM 37.9°F3.3°C 35.0°F1.7°C 89% 0.3 mph SW0.5 kmh SW 1.6 mph2.6 kmh 30.35 in1027.8 mb 0.00 in0.0 mm 0.00 in0.0 mm 0.00 in0.0 mm
08:55 AM 38.8°F3.8°C 35.9°F2.2°C 89% Calm Calm 1.6 mph2.6 kmh 30.34 in1027.4 mb 0.00 in0.0 mm 0.00 in0.0 mm 0.00 in0.0 mm
09:00 AM 39.6°F4.2°C 36.0°F2.2°C 87% Calm Calm 1.6 mph2.6 kmh 30.34 in1027.4 mb 0.00 in0.0 mm 0.00 in0.0 mm 0.00 in0.0 mm
09:05 AM 39.9°F4.4°C 35.8°F2.1°C 85% 0.5 mph SW0.8 kmh SW 3.1 mph5.0 kmh 30.34 in1027.4 mb 0.00 in0.0 mm 0.00 in0.0 mm 0.00 in0.0 mm
09:10 AM 40.1°F4.5°C 35.7°F2.1°C 84% 1.3 mph SW2.1 kmh SW 3.8 mph6.1 kmh 30.34 in1027.4 mb 0.00 in0.0 mm 0.00 in0.0 mm 0.00 in0.0 mm
09:15 AM 40.5°F4.7°C 36.0°F2.2°C 84% 0.9 mph SW1.4 kmh SW 3.8 mph6.1 kmh 30.35 in1027.8 mb 0.00 in0.0 mm 0.00 in0.0 mm 0.00 in0.0 mm
09:20 AM 41.0°F5.0°C 36.2°F2.3°C 83% 0.1 mph S0.2 kmh S 2.2 mph3.5 kmh 30.34 in1027.4 mb 0.00 in0.0 mm 0.00 in0.0 mm 0.00 in0.0 mm
09:25 AM 41.4°F5.2°C 36.9°F2.7°C 84% 0.1 mph SE0.2 kmh SE 1.6 mph2.6 kmh 30.34 in1027.4 mb 0.00 in0.0 mm 0.00 in0.0 mm 0.00 in0.0 mm
09:30 AM 41.9°F5.5°C 37.1°F2.8°C 83% 0.3 mph SE0.5 kmh SE 1.6 mph2.6 kmh 30.34 in1027.4 mb 0.00 in0.0 mm 0.00 in0.0 mm 0.00 in0.0 mm
09:35 AM 43.0°F6.1°C 37.9°F3.3°C 82% 0.4 mph S0.6 kmh S 2.2 mph3.5 kmh 30.35 in1027.8 mb 0.00 in0.0 mm 0.00 in0.0 mm 0.00 in0.0 mm
09:40 AM 43.9°F6.6°C 38.1°F3.4°C 80% 0.3 mph SW0.5 kmh SW 2.2 mph3.5 kmh 30.35 in1027.8 mb 0.00 in0.0 mm 0.00 in0.0 mm 0.00 in0.0 mm
09:45 AM 45.1°F7.3°C 38.4°F3.6°C 77% 0.2 mph SW0.3 kmh SW 2.2 mph3.5 kmh 30.35 in1027.8 mb 0.00 in0.0 mm 0.00 in0.0 mm 0.00 in0.0 mm
09:50 AM 45.7°F7.6°C 38.2°F3.4°C 75% 0.7 mph WSW1.1 kmh WSW 3.1 mph5.0 kmh 30.35 in1027.8 mb 0.00 in0.0 mm 0.00 in0.0 mm 0.00 in0.0 mm
09:55 AM 46.8°F8.2°C 38.9°F3.8°C 74% 1.3 mph W2.1 kmh W 3.8 mph6.1 kmh 30.35 in1027.8 mb 0.00 in0.0 mm 0.00 in0.0 mm 0.00 in0.0 mm
10:00 AM 47.8°F8.8°C 40.3°F4.6°C 75% 1.3 mph W2.1 kmh W 3.8 mph6.1 kmh 30.35 in1027.8 mb 0.00 in0.0 mm 0.00 in0.0 mm 0.00 in0.0 mm
10:05 AM 48.9°F9.4°C 41.4°F5.2°C 75% 1.0 mph W1.6 kmh W 3.1 mph5.0 kmh 30.35 in1027.8 mb 0.00 in0.0 mm 0.00 in0.0 mm 0.00 in0.0 mm
10:10 AM 49.8°F9.9°C 41.2°F5.1°C 72% 1.0 mph WNW1.6 kmh WNW 5.4 mph8.7 kmh 30.35 in1027.8 mb 0.00 in0.0 mm 0.00 in0.0 mm 0.00 in0.0 mm
10:15 AM 50.5°F10.3°C 41.1°F5.1°C 70% 1.0 mph W1.6 kmh W 5.4 mph8.7 kmh 30.35 in1027.8 mb 0.00 in0.0 mm 0.00 in0.0 mm 0.00 in0.0 mm
10:20 AM 51.3°F10.7°C 41.4°F5.2°C 69% 1.2 mph W1.9 kmh W 3.8 mph6.1 kmh 30.35 in1027.8 mb 0.00 in0.0 mm 0.00 in0.0 mm 0.00 in0.0 mm
10:25 AM 51.6°F10.9°C 41.0°F5.0°C 67% 1.4 mph WNW2.3 kmh WNW 4.5 mph7.2 kmh 30.35 in1027.8 mb 0.00 in0.0 mm 0.00 in0.0 mm 0.00 in0.0 mm
10:30 AM 51.8°F11.0°C 41.2°F5.1°C 67% 1.4 mph W2.3 kmh W 4.5 mph7.2 kmh 30.35 in1027.8 mb 0.00 in0.0 mm 0.00 in0.0 mm 0.00 in0.0 mm
10:35 AM 52.3°F11.3°C 41.7°F5.4°C 67% 0.9 mph SW1.4 kmh SW 3.8 mph6.1 kmh 30.35 in1027.8 mb 0.00 in0.0 mm 0.00 in0.0 mm 0.00 in0.0 mm
10:40 AM 52.7°F11.5°C 41.7°F5.4°C 66% 0.5 mph S0.8 kmh S 3.1 mph5.0 kmh 30.35 in1027.8 mb 0.00 in0.0 mm 0.00 in0.0 mm 0.00 in0.0 mm
10:45 AM 53.1°F11.7°C 42.0°F5.6°C 66% 0.4 mph S0.6 kmh S 3.1 mph5.0 kmh 30.35 in1027.8 mb 0.00 in0.0 mm 0.00 in0.0 mm 0.00 in0.0 mm
10:50 AM 53.6°F12.0°C 41.7°F5.4°C 64% 0.3 mph SSE0.5 kmh SSE 2.2 mph3.5 kmh 30.35 in1027.8 mb 0.00 in0.0 mm 0.00 in0.0 mm 0.00 in0.0 mm
10:55 AM 53.8°F12.1°C 41.9°F5.5°C 64% 0.4 mph NE0.6 kmh NE 3.1 mph5.0 kmh 30.34 in1027.4 mb 0.00 in0.0 mm 0.00 in0.0 mm 0.00 in0.0 mm
11:00 AM 54.1°F12.3°C 42.2°F5.7°C 64% 0.3 mph E0.5 kmh E 3.1 mph5.0 kmh 30.34 in1027.4 mb 0.00 in0.0 mm 0.00 in0.0 mm 0.00 in0.0 mm
11:05 AM 54.3°F12.4°C 42.0°F5.6°C 63% 0.4 mph SSW0.6 kmh SSW 3.8 mph6.1 kmh 30.34 in1027.4 mb 0.00 in0.0 mm 0.00 in0.0 mm 0.00 in0.0 mm
11:10 AM 54.5°F12.5°C 42.2°F5.7°C 63% 0.6 mph S1.0 kmh S 3.8 mph6.1 kmh 30.34 in1027.4 mb 0.00 in0.0 mm 0.00 in0.0 mm 0.00 in0.0 mm
11:15 AM 55.0°F12.8°C 42.3°F5.7°C 62% 0.3 mph SE0.5 kmh SE 3.1 mph5.0 kmh 30.34 in1027.4 mb 0.00 in0.0 mm 0.00 in0.0 mm 0.00 in0.0 mm
11:20 AM 55.4°F13.0°C 42.2°F5.7°C 61% 0.3 mph SE0.5 kmh SE 3.1 mph5.0 kmh 30.33 in1027.1 mb 0.00 in0.0 mm 0.00 in0.0 mm 0.00 in0.0 mm
11:25 AM 55.9°F13.3°C 43.1°F6.2°C 62% 0.3 mph S0.5 kmh S 3.1 mph5.0 kmh 30.33 in1027.1 mb 0.00 in0.0 mm 0.00 in0.0 mm 0.00 in0.0 mm
11:30 AM 56.5°F13.6°C 43.6°F6.4°C 62% 0.6 mph NNE1.0 kmh NNE 3.8 mph6.1 kmh 30.33 in1027.1 mb 0.00 in0.0 mm 0.00 in0.0 mm 0.00 in0.0 mm
11:35 AM 55.9°F13.3°C 43.1°F6.2°C 62% 1.9 mph NNE3.1 kmh NNE 7.6 mph12.2 kmh 30.33 in1027.1 mb 0.00 in0.0 mm 0.00 in0.0 mm 0.00 in0.0 mm
11:40 AM 55.2°F12.9°C 42.9°F6.1°C 63% 3.1 mph NNE5.0 kmh NNE 7.6 mph12.2 kmh 30.33 in1027.1 mb 0.00 in0.0 mm 0.00 in0.0 mm 0.00 in0.0 mm
11:45 AM 55.0°F12.8°C 43.5°F6.4°C 65% 2.9 mph NNE4.7 kmh NNE 7.6 mph12.2 kmh 30.32 in1026.8 mb 0.00 in0.0 mm 0.00 in0.0 mm 0.00 in0.0 mm
11:50 AM 55.0°F12.8°C 43.5°F6.4°C 65% 2.8 mph NNE4.5 kmh NNE 5.4 mph8.7 kmh 30.32 in1026.8 mb 0.00 in0.0 mm 0.00 in0.0 mm 0.00 in0.0 mm
11:55 AM 55.4°F13.0°C 43.8°F6.6°C 65% 2.7 mph NNE4.3 kmh NNE 5.4 mph8.7 kmh 30.32 in1026.8 mb 0.00 in0.0 mm 0.00 in0.0 mm 0.00 in0.0 mm
12:00 PM 55.8°F13.2°C 43.8°F6.6°C 64% 2.8 mph NNE4.5 kmh NNE 6.0 mph9.7 kmh 30.32 in1026.8 mb 0.00 in0.0 mm 0.00 in0.0 mm 0.00 in0.0 mm
12:05 PM 55.8°F13.2°C 43.8°F6.6°C 64% 3.2 mph N5.1 kmh N 6.0 mph9.7 kmh 30.32 in1026.8 mb 0.00 in0.0 mm 0.00 in0.0 mm 0.00 in0.0 mm
12:10 PM 56.1°F13.4°C 43.7°F6.5°C 63% 2.7 mph NNW4.3 kmh NNW 6.0 mph9.7 kmh 30.32 in1026.8 mb 0.00 in0.0 mm 0.00 in0.0 mm 0.00 in0.0 mm
12:15 PM 56.5°F13.6°C 44.0°F6.7°C 63% 2.0 mph NW3.2 kmh NW 5.4 mph8.7 kmh 30.32 in1026.8 mb 0.00 in0.0 mm 0.00 in0.0 mm 0.00 in0.0 mm
12:20 PM 57.4°F14.1°C 43.6°F6.4°C 60% 1.7 mph NW2.7 kmh NW 5.4 mph8.7 kmh 30.32 in1026.8 mb 0.00 in0.0 mm 0.00 in0.0 mm 0.00 in0.0 mm
12:25 PM 57.6°F14.2°C 43.4°F6.3°C 59% 1.1 mph W1.8 kmh W 3.8 mph6.1 kmh 30.32 in1026.8 mb 0.00 in0.0 mm 0.00 in0.0 mm 0.00 in0.0 mm
12:30 PM 58.1°F14.5°C 43.4°F6.3°C 58% 0.7 mph W1.1 kmh W 3.8 mph6.1 kmh 30.32 in1026.8 mb 0.00 in0.0 mm 0.00 in0.0 mm 0.00 in0.0 mm
12:35 PM 58.5°F14.7°C 42.8°F6.0°C 56% 0.8 mph W1.3 kmh W 3.8 mph6.1 kmh 30.32 in1026.8 mb 0.00 in0.0 mm 0.00 in0.0 mm 0.00 in0.0 mm
12:40 PM 58.6°F14.8°C 43.0°F6.1°C 56% 0.5 mph SW0.8 kmh SW 3.1 mph5.0 kmh 30.31 in1026.4 mb 0.00 in0.0 mm 0.00 in0.0 mm 0.00 in0.0 mm
12:45 PM 59.0°F15.0°C 42.9°F6.1°C 55% 0.6 mph WNW1.0 kmh WNW 3.8 mph6.1 kmh 30.31 in1026.4 mb 0.00 in0.0 mm 0.00 in0.0 mm 0.00 in0.0 mm
12:50 PM 59.2°F15.1°C 42.6°F5.9°C 54% 1.2 mph W1.9 kmh W 3.8 mph6.1 kmh 30.31 in1026.4 mb 0.00 in0.0 mm 0.00 in0.0 mm 0.00 in0.0 mm
12:55 PM 59.4°F15.2°C 42.7°F5.9°C 54% 1.0 mph WSW1.6 kmh WSW 3.8 mph6.1 kmh 30.31 in1026.4 mb 0.00 in0.0 mm 0.00 in0.0 mm 0.00 in0.0 mm
01:00 PM 59.5°F15.3°C 41.9°F5.5°C 52% 0.5 mph WNW0.8 kmh WNW 3.1 mph5.0 kmh 30.31 in1026.4 mb 0.00 in0.0 mm 0.00 in0.0 mm 0.00 in0.0 mm
01:05 PM 59.9°F15.5°C 42.2°F5.7°C 52% 0.8 mph NNW1.3 kmh NNW 3.8 mph6.1 kmh 30.31 in1026.4 mb 0.00 in0.0 mm 0.00 in0.0 mm 0.00 in0.0 mm
01:10 PM 59.9°F15.5°C 41.7°F5.4°C 51% 1.4 mph WNW2.3 kmh WNW 4.5 mph7.2 kmh 30.31 in1026.4 mb 0.00 in0.0 mm 0.00 in0.0 mm 0.00 in0.0 mm
01:15 PM 59.7°F15.4°C 41.6°F5.3°C 51% 1.0 mph W1.6 kmh W 4.5 mph7.2 kmh 30.30 in1026.1 mb 0.00 in0.0 mm 0.00 in0.0 mm 0.00 in0.0 mm
01:20 PM 59.5°F15.3°C 40.4°F4.7°C 49% 0.9 mph E1.4 kmh E 3.8 mph6.1 kmh 30.30 in1026.1 mb 0.00 in0.0 mm 0.00 in0.0 mm 0.00 in0.0 mm
01:25 PM 60.1°F15.6°C 40.9°F4.9°C 49% 1.1 mph SE1.8 kmh SE 3.8 mph6.1 kmh 30.30 in1026.1 mb 0.00 in0.0 mm 0.00 in0.0 mm 0.00 in0.0 mm
01:30 PM 60.3°F15.7°C 40.5°F4.7°C 48% 0.6 mph SE1.0 kmh SE 3.1 mph5.0 kmh 30.30 in1026.1 mb 0.00 in0.0 mm 0.00 in0.0 mm 0.00 in0.0 mm
01:35 PM 60.4°F15.8°C 40.1°F4.5°C 47% 0.5 mph E0.8 kmh E 2.2 mph3.5 kmh 30.30 in1026.1 mb 0.00 in0.0 mm 0.00 in0.0 mm 0.00 in0.0 mm
01:40 PM 60.8°F16.0°C 39.9°F4.4°C 46% 0.3 mph ESE0.5 kmh ESE 2.2 mph3.5 kmh 30.30 in1026.1 mb 0.00 in0.0 mm 0.00 in0.0 mm 0.00 in0.0 mm
01:45 PM 61.0°F16.1°C 38.3°F3.5°C 43% 1.1 mph NW1.8 kmh NW 5.4 mph8.7 kmh 30.30 in1026.1 mb 0.00 in0.0 mm 0.00 in0.0 mm 0.00 in0.0 mm
01:50 PM 61.2°F16.2°C 40.2°F4.6°C 46% 1.6 mph NW2.6 kmh NW 6.0 mph9.7 kmh 30.30 in1026.1 mb 0.00 in0.0 mm 0.00 in0.0 mm 0.00 in0.0 mm
01:55 PM 60.6°F15.9°C 41.9°F5.5°C 50% 2.3 mph NE3.7 kmh NE 7.6 mph12.2 kmh 30.30 in1026.1 mb 0.00 in0.0 mm 0.00 in0.0 mm 0.00 in0.0 mm
02:00 PM 60.4°F15.8°C 42.7°F5.9°C 52% 3.0 mph NE4.8 kmh NE 7.6 mph12.2 kmh 30.29 in1025.7 mb 0.00 in0.0 mm 0.00 in0.0 mm 0.00 in0.0 mm
02:05 PM 60.1°F15.6°C 42.4°F5.8°C 52% 2.8 mph NE4.5 kmh NE 6.9 mph11.1 kmh 30.29 in1025.7 mb 0.00 in0.0 mm 0.00 in0.0 mm 0.00 in0.0 mm
02:10 PM 59.9°F15.5°C 42.2°F5.7°C 52% 3.2 mph NE5.1 kmh NE 6.9 mph11.1 kmh 30.29 in1025.7 mb 0.00 in0.0 mm 0.00 in0.0 mm 0.00 in0.0 mm
02:15 PM 59.7°F15.4°C 42.1°F5.6°C 52% 3.4 mph NNE5.5 kmh NNE 7.6 mph12.2 kmh 30.29 in1025.7 mb 0.00 in0.0 mm 0.00 in0.0 mm 0.00 in0.0 mm
02:20 PM 59.7°F15.4°C 42.1°F5.6°C 52% 2.9 mph N4.7 kmh N 7.6 mph12.2 kmh 30.29 in1025.7 mb 0.00 in0.0 mm 0.00 in0.0 mm 0.00 in0.0 mm
02:25 PM 59.7°F15.4°C 41.6°F5.3°C 51% 2.8 mph NNE4.5 kmh NNE 6.0 mph9.7 kmh 30.29 in1025.7 mb 0.00 in0.0 mm 0.00 in0.0 mm 0.00 in0.0 mm
02:30 PM 59.9°F15.5°C 41.2°F5.1°C 50% 2.6 mph NNE4.2 kmh NNE 6.0 mph9.7 kmh 30.29 in1025.7 mb 0.00 in0.0 mm 0.00 in0.0 mm 0.00 in0.0 mm
02:35 PM 60.1°F15.6°C 41.4°F5.2°C 50% 1.6 mph NNE2.6 kmh NNE 4.5 mph7.2 kmh 30.29 in1025.7 mb 0.00 in0.0 mm 0.00 in0.0 mm 0.00 in0.0 mm
02:40 PM 60.1°F15.6°C 41.9°F5.5°C 51% 1.4 mph NE2.3 kmh NE 4.5 mph7.2 kmh 30.29 in1025.7 mb 0.00 in0.0 mm 0.00 in0.0 mm 0.00 in0.0 mm
02:45 PM 60.3°F15.7°C 40.5°F4.7°C 48% 1.7 mph NE2.7 kmh NE 4.5 mph7.2 kmh 30.29 in1025.7 mb 0.00 in0.0 mm 0.00 in0.0 mm 0.00 in0.0 mm
02:50 PM 60.3°F15.7°C 41.6°F5.3°C 50% 1.2 mph E1.9 kmh E 3.8 mph6.1 kmh 30.28 in1025.4 mb 0.00 in0.0 mm 0.00 in0.0 mm 0.00 in0.0 mm
02:55 PM 60.4°F15.8°C 40.7°F4.8°C 48% 0.7 mph E1.1 kmh E 3.8 mph6.1 kmh 30.28 in1025.4 mb 0.00 in0.0 mm 0.00 in0.0 mm 0.00 in0.0 mm
03:00 PM 60.4°F15.8°C 40.1°F4.5°C 47% 1.2 mph ENE1.9 kmh ENE 3.8 mph6.1 kmh 30.28 in1025.4 mb 0.00 in0.0 mm 0.00 in0.0 mm 0.00 in0.0 mm
03:05 PM 60.4°F15.8°C 41.2°F5.1°C 49% 1.9 mph NE3.1 kmh NE 5.4 mph8.7 kmh 30.28 in1025.4 mb 0.00 in0.0 mm 0.00 in0.0 mm 0.00 in0.0 mm
03:10 PM 60.4°F15.8°C 42.2°F5.7°C 51% 2.1 mph NE3.4 kmh NE 5.4 mph8.7 kmh 30.28 in1025.4 mb 0.00 in0.0 mm 0.00 in0.0 mm 0.00 in0.0 mm
03:15 PM 60.3°F15.7°C 41.6°F5.3°C 50% 1.9 mph NE3.1 kmh NE 5.4 mph8.7 kmh 30.28 in1025.4 mb 0.00 in0.0 mm 0.00 in0.0 mm 0.00 in0.0 mm
03:20 PM 60.1°F15.6°C 41.9°F5.5°C 51% 1.3 mph NE2.1 kmh NE 4.5 mph7.2 kmh 30.28 in1025.4 mb 0.00 in0.0 mm 0.00 in0.0 mm 0.00 in0.0 mm
03:25 PM 60.3°F15.7°C 42.6°F5.9°C 52% 1.1 mph NNE1.8 kmh NNE 3.1 mph5.0 kmh 30.28 in1025.4 mb 0.00 in0.0 mm 0.00 in0.0 mm 0.00 in0.0 mm
03:30 PM 60.1°F15.6°C 42.4°F5.8°C 52% 1.4 mph NE2.3 kmh NE 3.8 mph6.1 kmh 30.28 in1025.4 mb 0.00 in0.0 mm 0.00 in0.0 mm 0.00 in0.0 mm
03:35 PM 59.9°F15.5°C 42.2°F5.7°C 52% 1.4 mph NE2.3 kmh NE 3.8 mph6.1 kmh 30.28 in1025.4 mb 0.00 in0.0 mm 0.00 in0.0 mm 0.00 in0.0 mm
03:40 PM 59.9°F15.5°C 42.7°F5.9°C 53% 1.3 mph NE2.1 kmh NE 5.4 mph8.7 kmh 30.28 in1025.4 mb 0.00 in0.0 mm 0.00 in0.0 mm 0.00 in0.0 mm
03:45 PM 59.5°F15.3°C 43.4°F6.3°C 55% 1.7 mph NE2.7 kmh NE 5.4 mph8.7 kmh 30.28 in1025.4 mb 0.00 in0.0 mm 0.00 in0.0 mm 0.00 in0.0 mm
03:50 PM 59.2°F15.1°C 43.5°F6.4°C 56% 1.8 mph NE2.9 kmh NE 5.4 mph8.7 kmh 30.28 in1025.4 mb 0.00 in0.0 mm 0.00 in0.0 mm 0.00 in0.0 mm
03:55 PM 59.0°F15.0°C 43.3°F6.3°C 56% 1.4 mph NE2.3 kmh NE 3.8 mph6.1 kmh 30.28 in1025.4 mb 0.00 in0.0 mm 0.00 in0.0 mm 0.00 in0.0 mm
04:00 PM 58.6°F14.8°C 43.0°F6.1°C 56% 1.6 mph NE2.6 kmh NE 4.5 mph7.2 kmh 30.28 in1025.4 mb 0.00 in0.0 mm 0.00 in0.0 mm 0.00 in0.0 mm
04:05 PM 58.1°F14.5°C 42.5°F5.8°C 56% 2.1 mph NNE3.4 kmh NNE 4.5 mph7.2 kmh 30.28 in1025.4 mb 0.00 in0.0 mm 0.00 in0.0 mm 0.00 in0.0 mm
04:10 PM 57.7°F14.3°C 42.6°F5.9°C 57% 2.0 mph N3.2 kmh N 4.5 mph7.2 kmh 30.29 in1025.7 mb 0.00 in0.0 mm 0.00 in0.0 mm 0.00 in0.0 mm
04:15 PM 57.4°F14.1°C 42.3°F5.7°C 57% 1.4 mph N2.3 kmh N 3.8 mph6.1 kmh 30.29 in1025.7 mb 0.00 in0.0 mm 0.00 in0.0 mm 0.00 in0.0 mm
04:20 PM 57.0°F13.9°C 41.5°F5.3°C 56% 1.2 mph NNW1.9 kmh NNW 3.8 mph6.1 kmh 30.29 in1025.7 mb 0.00 in0.0 mm 0.00 in0.0 mm 0.00 in0.0 mm
04:25 PM 56.8°F13.8°C 41.3°F5.2°C 56% 1.6 mph N2.6 kmh N 3.8 mph6.1 kmh 30.29 in1025.7 mb 0.00 in0.0 mm 0.00 in0.0 mm 0.00 in0.0 mm
04:30 PM 56.5°F13.6°C 41.0°F5.0°C 56% 1.6 mph N2.6 kmh N 3.8 mph6.1 kmh 30.29 in1025.7 mb 0.00 in0.0 mm 0.00 in0.0 mm 0.00 in0.0 mm
04:35 PM 56.1°F13.4°C 40.6°F4.8°C 56% 1.0 mph NNE1.6 kmh NNE 3.8 mph6.1 kmh 30.29 in1025.7 mb 0.00 in0.0 mm 0.00 in0.0 mm 0.00 in0.0 mm
04:40 PM 55.9°F13.3°C 40.0°F4.4°C 55% 0.5 mph NNE0.8 kmh NNE 3.1 mph5.0 kmh 30.29 in1025.7 mb 0.00 in0.0 mm 0.00 in0.0 mm 0.00 in0.0 mm
04:45 PM 55.8°F13.2°C 39.8°F4.3°C 55% 0.7 mph NNE1.1 kmh NNE 3.1 mph5.0 kmh 30.29 in1025.7 mb 0.00 in0.0 mm 0.00 in0.0 mm 0.00 in0.0 mm
04:50 PM 55.4°F13.0°C 39.0°F3.9°C 54% 1.1 mph N1.8 kmh N 3.1 mph5.0 kmh 30.30 in1026.1 mb 0.00 in0.0 mm 0.00 in0.0 mm 0.00 in0.0 mm
04:55 PM 55.2°F12.9°C 38.9°F3.8°C 54% 0.8 mph N1.3 kmh N 3.1 mph5.0 kmh 30.29 in1025.7 mb 0.00 in0.0 mm 0.00 in0.0 mm 0.00 in0.0 mm
05:00 PM 54.9°F12.7°C 38.1°F3.4°C 53% 0.3 mph NNW0.5 kmh NNW 2.2 mph3.5 kmh 30.30 in1026.1 mb 0.00 in0.0 mm 0.00 in0.0 mm 0.00 in0.0 mm
05:05 PM 54.5°F12.5°C 38.2°F3.4°C 54% 0.5 mph W0.8 kmh W 4.5 mph7.2 kmh 30.29 in1025.7 mb 0.00 in0.0 mm 0.00 in0.0 mm 0.00 in0.0 mm
05:10 PM 54.3°F12.4°C 38.5°F3.6°C 55% 1.8 mph SW2.9 kmh SW 4.5 mph7.2 kmh 30.30 in1026.1 mb 0.00 in0.0 mm 0.00 in0.0 mm 0.00 in0.0 mm
05:15 PM 54.3°F12.4°C 39.4°F4.1°C 57% 2.4 mph SW3.9 kmh SW 4.5 mph7.2 kmh 30.29 in1025.7 mb 0.00 in0.0 mm 0.00 in0.0 mm 0.00 in0.0 mm
05:20 PM 54.0°F12.2°C 39.5°F4.2°C 58% 2.1 mph SW3.4 kmh SW 4.5 mph7.2 kmh 30.29 in1025.7 mb 0.00 in0.0 mm 0.00 in0.0 mm 0.00 in0.0 mm
05:25 PM 53.6°F12.0°C 40.1°F4.5°C 60% 2.1 mph SW3.4 kmh SW 4.5 mph7.2 kmh 30.30 in1026.1 mb 0.00 in0.0 mm 0.00 in0.0 mm 0.00 in0.0 mm
05:30 PM 53.1°F11.7°C 40.4°F4.7°C 62% 2.2 mph SW3.5 kmh SW 3.8 mph6.1 kmh 30.30 in1026.1 mb 0.00 in0.0 mm 0.00 in0.0 mm 0.00 in0.0 mm
05:35 PM 52.5°F11.4°C 40.3°F4.6°C 63% 2.6 mph SW4.2 kmh SW 4.5 mph7.2 kmh 30.30 in1026.1 mb 0.00 in0.0 mm 0.00 in0.0 mm 0.00 in0.0 mm
05:40 PM 52.2°F11.2°C 40.4°F4.7°C 64% 2.8 mph SW4.5 kmh SW 4.5 mph7.2 kmh 30.30 in1026.1 mb 0.00 in0.0 mm 0.00 in0.0 mm 0.00 in0.0 mm
05:45 PM 51.4°F10.8°C 40.5°F4.7°C 66% 2.9 mph SW4.7 kmh SW 4.5 mph7.2 kmh 30.30 in1026.1 mb 0.00 in0.0 mm 0.00 in0.0 mm 0.00 in0.0 mm
05:50 PM 50.9°F10.5°C 40.3°F4.6°C 67% 2.8 mph SW4.5 kmh SW 4.5 mph7.2 kmh 30.30 in1026.1 mb 0.00 in0.0 mm 0.00 in0.0 mm 0.00 in0.0 mm
05:55 PM 50.4°F10.2°C 40.2°F4.6°C 68% 2.6 mph SW4.2 kmh SW 4.5 mph7.2 kmh 30.31 in1026.4 mb 0.00 in0.0 mm 0.00 in0.0 mm 0.00 in0.0 mm
06:00 PM 49.8°F9.9°C 40.4°F4.7°C 70% 2.6 mph SW4.2 kmh SW 4.5 mph7.2 kmh 30.31 in1026.4 mb 0.00 in0.0 mm 0.00 in0.0 mm 0.00 in0.0 mm
06:05 PM 49.5°F9.7°C 40.5°F4.7°C 71% 1.9 mph SW3.1 kmh SW 4.5 mph7.2 kmh 30.31 in1026.4 mb 0.00 in0.0 mm 0.00 in0.0 mm 0.00 in0.0 mm
06:10 PM 49.3°F9.6°C 40.3°F4.6°C 71% 0.8 mph SW1.3 kmh SW 3.1 mph5.0 kmh 30.31 in1026.4 mb 0.00 in0.0 mm 0.00 in0.0 mm 0.00 in0.0 mm
06:15 PM 49.1°F9.5°C 40.5°F4.7°C 72% 0.5 mph SW0.8 kmh SW 2.2 mph3.5 kmh 30.32 in1026.8 mb 0.00 in0.0 mm 0.00 in0.0 mm 0.00 in0.0 mm
06:20 PM 48.9°F9.4°C 40.3°F4.6°C 72% 0.3 mph SW0.5 kmh SW 1.6 mph2.6 kmh 30.31 in1026.4 mb 0.00 in0.0 mm 0.00 in0.0 mm 0.00 in0.0 mm
06:25 PM 48.7°F9.3°C 40.5°F4.7°C 73% Calm Calm 1.6 mph2.6 kmh 30.31 in1026.4 mb 0.00 in0.0 mm 0.00 in0.0 mm 0.00 in0.0 mm
06:30 PM 48.9°F9.4°C 40.7°F4.8°C 73% Calm Calm 1.6 mph2.6 kmh 30.31 in1026.4 mb 0.00 in0.0 mm 0.00 in0.0 mm 0.00 in0.0 mm
06:35 PM 48.6°F9.2°C 40.3°F4.6°C 73% 0.1 mph SW0.2 kmh SW 1.6 mph2.6 kmh 30.31 in1026.4 mb 0.00 in0.0 mm 0.00 in0.0 mm 0.00 in0.0 mm
06:40 PM 48.2°F9.0°C 40.0°F4.4°C 73% Calm Calm 1.6 mph2.6 kmh 30.32 in1026.8 mb 0.00 in0.0 mm 0.00 in0.0 mm 0.00 in0.0 mm
06:45 PM 47.8°F8.8°C 40.0°F4.4°C 74% Calm Calm 1.6 mph2.6 kmh 30.31 in1026.4 mb 0.00 in0.0 mm 0.00 in0.0 mm 0.00 in0.0 mm
06:50 PM 47.5°F8.6°C 39.6°F4.2°C 74% Calm Calm 1.6 mph2.6 kmh 30.31 in1026.4 mb 0.00 in0.0 mm 0.00 in0.0 mm 0.00 in0.0 mm
06:55 PM 47.3°F8.5°C 39.8°F4.3°C 75% Calm Calm 1.6 mph2.6 kmh 30.31 in1026.4 mb 0.00 in0.0 mm 0.00 in0.0 mm 0.00 in0.0 mm
07:00 PM 46.8°F8.2°C 39.6°F4.2°C 76% Calm Calm 1.6 mph2.6 kmh 30.32 in1026.8 mb 0.00 in0.0 mm 0.00 in0.0 mm 0.00 in0.0 mm
07:05 PM 46.8°F8.2°C 39.6°F4.2°C 76% 0.1 mph SW0.2 kmh SW 2.2 mph3.5 kmh 30.31 in1026.4 mb 0.00 in0.0 mm 0.00 in0.0 mm 0.00 in0.0 mm
07:10 PM 46.9°F8.3°C 39.4°F4.1°C 75% 0.5 mph SW0.8 kmh SW 3.1 mph5.0 kmh 30.32 in1026.8 mb 0.00 in0.0 mm 0.00 in0.0 mm 0.00 in0.0 mm
07:15 PM 47.1°F8.4°C 39.3°F4.1°C 74% 0.6 mph SW1.0 kmh SW 3.1 mph5.0 kmh 30.32 in1026.8 mb 0.00 in0.0 mm 0.00 in0.0 mm 0.00 in0.0 mm
07:20 PM 47.1°F8.4°C 39.3°F4.1°C 74% 0.4 mph SW0.6 kmh SW 2.2 mph3.5 kmh 30.31 in1026.4 mb 0.00 in0.0 mm 0.00 in0.0 mm 0.00 in0.0 mm
07:25 PM 47.1°F8.4°C 39.3°F4.1°C 74% 0.8 mph SW1.3 kmh SW 3.8 mph6.1 kmh 30.31 in1026.4 mb 0.00 in0.0 mm 0.00 in0.0 mm 0.00 in0.0 mm
07:30 PM 47.1°F8.4°C 38.9°F3.8°C 73% 1.2 mph SW1.9 kmh SW 3.8 mph6.1 kmh 30.31 in1026.4 mb 0.00 in0.0 mm 0.00 in0.0 mm 0.00 in0.0 mm
07:35 PM 46.8°F8.2°C 38.9°F3.8°C 74% 1.0 mph WSW1.6 kmh WSW 4.5 mph7.2 kmh 30.31 in1026.4 mb 0.00 in0.0 mm 0.00 in0.0 mm 0.00 in0.0 mm
07:40 PM 46.9°F8.3°C 39.1°F3.9°C 74% 1.3 mph WSW2.1 kmh WSW 4.5 mph7.2 kmh 30.31 in1026.4 mb 0.00 in0.0 mm 0.00 in0.0 mm 0.00 in0.0 mm
07:45 PM 46.8°F8.2°C 38.9°F3.8°C 74% 1.6 mph WSW2.6 kmh WSW 4.5 mph7.2 kmh 30.31 in1026.4 mb 0.00 in0.0 mm 0.00 in0.0 mm 0.00 in0.0 mm
07:50 PM 46.6°F8.1°C 38.7°F3.7°C 74% 1.5 mph SW2.4 kmh SW 3.8 mph6.1 kmh 30.31 in1026.4 mb 0.00 in0.0 mm 0.00 in0.0 mm 0.00 in0.0 mm
07:55 PM 46.6°F8.1°C 38.7°F3.7°C 74% 1.3 mph SW2.1 kmh SW 3.8 mph6.1 kmh 30.31 in1026.4 mb 0.00 in0.0 mm 0.00 in0.0 mm 0.00 in0.0 mm
08:00 PM 46.6°F8.1°C 38.4°F3.6°C 73% 1.6 mph SW2.6 kmh SW 4.5 mph7.2 kmh 30.31 in1026.4 mb 0.00 in0.0 mm 0.00 in0.0 mm 0.00 in0.0 mm
08:05 PM 46.4°F8.0°C 38.2°F3.4°C 73% 1.7 mph SW2.7 kmh SW 4.5 mph7.2 kmh 30.31 in1026.4 mb 0.00 in0.0 mm 0.00 in0.0 mm 0.00 in0.0 mm
08:10 PM 45.9°F7.7°C 37.7°F3.2°C 73% 1.2 mph SW1.9 kmh SW 3.1 mph5.0 kmh 30.31 in1026.4 mb 0.00 in0.0 mm 0.00 in0.0 mm 0.00 in0.0 mm
08:15 PM 45.3°F7.4°C 37.5°F3.1°C 74% 0.8 mph SW1.3 kmh SW 3.1 mph5.0 kmh 30.32 in1026.8 mb 0.00 in0.0 mm 0.00 in0.0 mm 0.00 in0.0 mm
08:20 PM 45.1°F7.3°C 37.7°F3.2°C 75% 0.6 mph SW1.0 kmh SW 2.2 mph3.5 kmh 30.32 in1026.8 mb 0.00 in0.0 mm 0.00 in0.0 mm 0.00 in0.0 mm
08:25 PM 45.0°F7.2°C 37.5°F3.1°C 75% 0.5 mph SSW0.8 kmh SSW 2.2 mph3.5 kmh 30.32 in1026.8 mb 0.00 in0.0 mm 0.00 in0.0 mm 0.00 in0.0 mm
08:30 PM 44.6°F7.0°C 37.5°F3.1°C 76% 0.2 mph SSW0.3 kmh SSW 1.6 mph2.6 kmh 30.32 in1026.8 mb 0.00 in0.0 mm 0.00 in0.0 mm 0.00 in0.0 mm
08:35 PM 44.4°F6.9°C 37.3°F2.9°C 76% Calm Calm 1.6 mph2.6 kmh 30.32 in1026.8 mb 0.00 in0.0 mm 0.00 in0.0 mm 0.00 in0.0 mm
08:40 PM 44.1°F6.7°C 37.0°F2.8°C 76% 0.1 mph S0.2 kmh S 1.6 mph2.6 kmh 30.32 in1026.8 mb 0.00 in0.0 mm 0.00 in0.0 mm 0.00 in0.0 mm
08:45 PM 43.9°F6.6°C 37.1°F2.8°C 77% 0.1 mph S0.2 kmh S 1.6 mph2.6 kmh 30.32 in1026.8 mb 0.00 in0.0 mm 0.00 in0.0 mm 0.00 in0.0 mm
08:50 PM 44.1°F6.7°C 37.3°F2.9°C 77% 0.1 mph SSW0.2 kmh SSW 2.2 mph3.5 kmh 30.32 in1026.8 mb 0.00 in0.0 mm 0.00 in0.0 mm 0.00 in0.0 mm
08:55 PM 44.2°F6.8°C 37.5°F3.1°C 77% 0.4 mph SW0.6 kmh SW 3.1 mph5.0 kmh 30.32 in1026.8 mb 0.00 in0.0 mm 0.00 in0.0 mm 0.00 in0.0 mm
09:00 PM 44.1°F6.7°C 37.0°F2.8°C 76% 0.5 mph SW0.8 kmh SW 3.1 mph5.0 kmh 30.32 in1026.8 mb 0.00 in0.0 mm 0.00 in0.0 mm 0.00 in0.0 mm
09:05 PM 43.9°F6.6°C 37.1°F2.8°C 77% 0.4 mph SSW0.6 kmh SSW 2.2 mph3.5 kmh 30.32 in1026.8 mb 0.00 in0.0 mm 0.00 in0.0 mm 0.00 in0.0 mm
09:10 PM 43.7°F6.5°C 37.0°F2.8°C 77% 0.5 mph SSW0.8 kmh SSW 2.2 mph3.5 kmh 30.32 in1026.8 mb 0.00 in0.0 mm 0.00 in0.0 mm 0.00 in0.0 mm
09:15 PM 43.3°F6.3°C 36.6°F2.6°C 77% 0.6 mph SSW1.0 kmh SSW 2.2 mph3.5 kmh 30.32 in1026.8 mb 0.00 in0.0 mm 0.00 in0.0 mm 0.00 in0.0 mm
09:20 PM 43.2°F6.2°C 36.8°F2.7°C 78% 0.3 mph SW0.5 kmh SW 2.2 mph3.5 kmh 30.32 in1026.8 mb 0.00 in0.0 mm 0.00 in0.0 mm 0.00 in0.0 mm
09:25 PM 43.0°F6.1°C 36.9°F2.7°C 79% 0.1 mph SW0.2 kmh SW 2.2 mph3.5 kmh 30.32 in1026.8 mb 0.00 in0.0 mm 0.00 in0.0 mm 0.00 in0.0 mm
09:30 PM 42.8°F6.0°C 36.7°F2.6°C 79% 0.1 mph WSW0.2 kmh WSW 2.2 mph3.5 kmh 30.32 in1026.8 mb 0.00 in0.0 mm 0.00 in0.0 mm 0.00 in0.0 mm
09:35 PM 42.3°F5.7°C 36.9°F2.7°C 81% 0.1 mph WSW0.2 kmh WSW 2.2 mph3.5 kmh 30.32 in1026.8 mb 0.00 in0.0 mm 0.00 in0.0 mm 0.00 in0.0 mm
09:40 PM 42.4°F5.8°C 37.3°F2.9°C 82% 0.1 mph WSW0.2 kmh WSW 2.2 mph3.5 kmh 30.32 in1026.8 mb 0.00 in0.0 mm 0.00 in0.0 mm 0.00 in0.0 mm
09:45 PM 43.2°F6.2°C 37.4°F3.0°C 80% 0.4 mph SW0.6 kmh SW 2.2 mph3.5 kmh 30.32 in1026.8 mb 0.00 in0.0 mm 0.00 in0.0 mm 0.00 in0.0 mm
09:50 PM 43.2°F6.2°C 37.1°F2.8°C 79% 0.4 mph SW0.6 kmh SW 2.2 mph3.5 kmh 30.32 in1026.8 mb 0.00 in0.0 mm 0.00 in0.0 mm 0.00 in0.0 mm
09:55 PM 43.3°F6.3°C 37.3°F2.9°C 79% 0.5 mph SW0.8 kmh SW 2.2 mph3.5 kmh 30.31 in1026.4 mb 0.00 in0.0 mm 0.00 in0.0 mm 0.00 in0.0 mm
10:00 PM 43.2°F6.2°C 36.8°F2.7°C 78% 0.5 mph SW0.8 kmh SW 3.1 mph5.0 kmh 30.31 in1026.4 mb 0.00 in0.0 mm 0.00 in0.0 mm 0.00 in0.0 mm
10:05 PM 43.2°F6.2°C 36.8°F2.7°C 78% 0.4 mph SW0.6 kmh SW 3.1 mph5.0 kmh 30.31 in1026.4 mb 0.00 in0.0 mm 0.00 in0.0 mm 0.00 in0.0 mm
10:10 PM 43.3°F6.3°C 36.6°F2.6°C 77% 0.6 mph SW1.0 kmh SW 3.8 mph6.1 kmh 30.31 in1026.4 mb 0.00 in0.0 mm 0.00 in0.0 mm 0.00 in0.0 mm
10:15 PM 43.5°F6.4°C 36.8°F2.7°C 77% 0.8 mph SW1.3 kmh SW 3.8 mph6.1 kmh 30.31 in1026.4 mb 0.00 in0.0 mm 0.00 in0.0 mm 0.00 in0.0 mm
10:20 PM 43.3°F6.3°C 36.3°F2.4°C 76% 1.0 mph SW1.6 kmh SW 3.8 mph6.1 kmh 30.31 in1026.4 mb 0.00 in0.0 mm 0.00 in0.0 mm 0.00 in0.0 mm
10:25 PM 42.8°F6.0°C 35.8°F2.1°C 76% 1.4 mph SW2.3 kmh SW 3.1 mph5.0 kmh 30.31 in1026.4 mb 0.00 in0.0 mm 0.00 in0.0 mm 0.00 in0.0 mm
10:30 PM 42.3°F5.7°C 35.6°F2.0°C 77% 1.6 mph SW2.6 kmh SW 3.8 mph6.1 kmh 30.32 in1026.8 mb 0.00 in0.0 mm 0.00 in0.0 mm 0.00 in0.0 mm
10:35 PM 41.9°F5.5°C 35.9°F2.2°C 79% 1.4 mph SW2.3 kmh SW 3.8 mph6.1 kmh 30.32 in1026.8 mb 0.00 in0.0 mm 0.00 in0.0 mm 0.00 in0.0 mm
10:40 PM 41.5°F5.3°C 35.5°F1.9°C 79% 0.9 mph SW1.4 kmh SW 3.1 mph5.0 kmh 30.32 in1026.8 mb 0.00 in0.0 mm 0.00 in0.0 mm 0.00 in0.0 mm
10:45 PM 41.4°F5.2°C 35.3°F1.8°C 79% 0.4 mph SSW0.6 kmh SSW 3.1 mph5.0 kmh 30.32 in1026.8 mb 0.00 in0.0 mm 0.00 in0.0 mm 0.00 in0.0 mm
10:50 PM 41.2°F5.1°C 35.8°F2.1°C 81% 0.4 mph S0.6 kmh S 2.2 mph3.5 kmh 30.32 in1026.8 mb 0.00 in0.0 mm 0.00 in0.0 mm 0.00 in0.0 mm
10:55 PM 41.5°F5.3°C 35.8°F2.1°C 80% 1.0 mph SSW1.6 kmh SSW 2.2 mph3.5 kmh 30.32 in1026.8 mb 0.00 in0.0 mm 0.00 in0.0 mm 0.00 in0.0 mm
11:00 PM 41.9°F5.5°C 35.9°F2.2°C 79% 0.8 mph SSW1.3 kmh SSW 2.2 mph3.5 kmh 30.32 in1026.8 mb 0.00 in0.0 mm 0.00 in0.0 mm 0.00 in0.0 mm
11:05 PM 40.8°F4.9°C 35.1°F1.7°C 80% 0.4 mph S0.6 kmh S 2.2 mph3.5 kmh 30.32 in1026.8 mb 0.00 in0.0 mm 0.00 in0.0 mm 0.00 in0.0 mm
11:10 PM 39.7°F4.3°C 34.7°F1.5°C 82% 0.4 mph ENE0.6 kmh ENE 2.2 mph3.5 kmh 30.32 in1026.8 mb 0.00 in0.0 mm 0.00 in0.0 mm 0.00 in0.0 mm
11:15 PM 39.7°F4.3°C 35.3°F1.8°C 84% 0.4 mph NW0.6 kmh NW 2.2 mph3.5 kmh 30.32 in1026.8 mb 0.00 in0.0 mm 0.00 in0.0 mm 0.00 in0.0 mm
11:20 PM 40.3°F4.6°C 36.1°F2.3°C 85% 0.3 mph WNW0.5 kmh WNW 2.2 mph3.5 kmh 30.32 in1026.8 mb 0.00 in0.0 mm 0.00 in0.0 mm 0.00 in0.0 mm
11:25 PM 41.2°F5.1°C 36.7°F2.6°C 84% 0.3 mph WSW0.5 kmh WSW 2.2 mph3.5 kmh 30.32 in1026.8 mb 0.00 in0.0 mm 0.00 in0.0 mm 0.00 in0.0 mm
11:30 PM 41.7°F5.4°C 36.6°F2.6°C 82% 0.5 mph SW0.8 kmh SW 2.2 mph3.5 kmh 30.32 in1026.8 mb 0.00 in0.0 mm 0.00 in0.0 mm 0.00 in0.0 mm
11:35 PM 41.9°F5.5°C 36.5°F2.5°C 81% 0.5 mph SW0.8 kmh SW 2.2 mph3.5 kmh 30.32 in1026.8 mb 0.00 in0.0 mm 0.00 in0.0 mm 0.00 in0.0 mm
11:40 PM 42.8°F6.0°C 37.4°F3.0°C 81% 1.1 mph SW1.8 kmh SW 3.8 mph6.1 kmh 30.32 in1026.8 mb 0.00 in0.0 mm 0.00 in0.0 mm 0.00 in0.0 mm
11:45 PM 42.8°F6.0°C 36.4°F2.4°C 78% 2.2 mph SW3.5 kmh SW 4.5 mph7.2 kmh 30.32 in1026.8 mb 0.00 in0.0 mm 0.00 in0.0 mm 0.00 in0.0 mm
11:50 PM 42.1°F5.6°C 35.7°F2.1°C 78% 2.3 mph SW3.7 kmh SW 4.5 mph7.2 kmh 30.32 in1026.8 mb 0.00 in0.0 mm 0.00 in0.0 mm 0.00 in0.0 mm
11:55 PM 41.0°F5.0°C 35.3°F1.8°C 80% 1.3 mph SW2.1 kmh SW 4.5 mph7.2 kmh 30.32 in1026.8 mb 0.00 in0.0 mm 0.00 in0.0 mm 0.00 in0.0 mm